Corvallis, OR

2:24 PM PDT on September 01, 2014 (GMT -0700)
Cascade View Estates | Change Station
CLOSE
Current Station
Personal Weather Station
Location: Corvallis, OR
Elevation: 666 ft
Nearby Weather Stations

Elev 666 ft 44.64 °N, 123.26 °W | Updated 55 seconds ago

Clear
Clear
77.1 °F
Feels Like 79 °F
N
2.0
Wind Variable Wind from North
Gusts 2.0 mph

Today
High -- | Low -- °F
--% Chance of Precip.
Yesterday
High -- | Low -- °F
Precip. -- in
6:35 AM 7:49 PM
Waxing Crescent, 44% visible
Pressure 30.04 in
Visibility 10.0 miles
Clouds Clear
Heat Index 79 °F
Dew Point 56 °F
Humidity 49%
Rainfall 0.00 in
Snow Depth Not available.
UV 8 out of 12
Pollen 3.50 out of 12
Ozone Good
PM2.5 Good
Flu Activity Not available.
METAR KCVO 012115Z AUTO 04003KT 10SM CLR 27/11 A3004 RMK AO1

More Conditions Fewer Conditions

Pressure 30.04 in
Visibility 10.0 miles
Clouds Clear
Heat Index 79 °F
Dew Point 56 °F
Humidity 49%
Rainfall 0.00 in
Snow Depth Not available.
UV 8 out of 12
Pollen 3.50 out of 12
Ozone Good
PM2.5 Good
Flu Activity Not available.
METAR KCVO 012115Z AUTO 04003KT 10SM CLR 27/11 A3004 RMK AO1

More Conditions Fewer Conditions

10-Day Weather Forecast

Almanac

Astronomy

Sep. 01, 2014 Rise Set
Actual Time 6:35 AM PDT 7:49 PM PDT
Civil Twilight 6:05 AM PDT 8:19 PM PDT
Nautical Twilight 5:29 AM PDT 8:55 PM PDT
Astronomical Twilight 4:51 AM PDT 9:33 PM PDT
Moon 1:43 PM PDT 11:38 PM PDT
Length of Visible Light 14h 13m
Length of Day
13h 13m
Tomorrow will be 2m 59s shorter.
Waxing Crescent, 44% of the Moon is Illuminated
Today
Waxing Crescent
Sep 2
First Quarter
Sep 8
Full
Sep 15
Last Quarter
Sep 24
New

Today's Extremes

State Highs State Lows

Community

WunderPhotos

Upload Photos

1,749,413 photos uploaded!

WunderBlogs® & News

Nearby

Air Quality

  Air Quality AQ Index Pollutant
Yesterday Good
PM2.5
Yesterday Good
OZONE
Current Good
PM2.5
Current Good
OZONE
Monday Moderate
PM2.5
Tuesday Good
PM2.5

Snow Depth

Station Depth Elevation
Daly Lake 0 in 3600 ft
Hogg Pass 0 in 4760 ft
Peavine Ridge 2 in 3500 ft
Clackamas Lake 0 in 3400 ft
Clear Lake 1 in 3500 ft

Earthquake Activity

City Distance Mag. Time & Date
No recent earthquake activity has been reported nearby.
Minimum magnitude displayed is 2.5.

Coastal Water Temperatures

Place Temperature
No Stations Reporting

Nearby Weather Stations